ARG1218 SABE-SBBR
Flight info
| Callsign | ARG1218 |
|---|---|
| Flight time | N/A |
| Altitude | FL370 |
| Route | KUKEN8 KUKEN UL324 CUARA UM532 ILPAV IRUL1A |
| Aircraft | B38M/M-SDE2E3FGHIRWXY/LB1 |
Departure
| Time | 2026-05-07 00:25 |
|---|---|
| Airport | Aeroparque Jorge Newbery (SABE) |
Arrival
| Time | N/A |
|---|---|
| Airport | Presidente Juscelino Kubitschek International Airport (SBBR) |
| Time | Latitude | Longitude | Altitude | Speed | Heading |
|---|---|---|---|---|---|
| 2026-05-06 23:47 | -34.55682 | -58.41487 | 28 ft | 0 kts | 13° |
| 2026-05-07 00:07 | -34.55681 | -58.41487 | 28 ft | 0 kts | 13° |
| 2026-05-07 00:12 | -34.55682 | -58.41487 | 28 ft | 1 kts | 13° |
| 2026-05-07 00:12 | -34.55706 | -58.41490 | 47 ft | 4 kts | 352° |
| 2026-05-07 00:13 | -34.55729 | -58.41479 | 28 ft | 4 kts | 317° |
| 2026-05-07 00:13 | -34.55745 | -58.41454 | 28 ft | 4 kts | 297° |
| 2026-05-07 00:13 | -34.55750 | -58.41442 | 28 ft | 0 kts | 298° |
| 2026-05-07 00:17 | -34.55748 | -58.41446 | 28 ft | 2 kts | 298° |
| 2026-05-07 00:17 | -34.55734 | -58.41479 | 28 ft | 7 kts | 298° |
| 2026-05-07 00:18 | -34.55725 | -58.41538 | 28 ft | 8 kts | 250° |
| 2026-05-07 00:18 | -34.55768 | -58.41586 | 28 ft | 9 kts | 204° |
| 2026-05-07 00:18 | -34.55818 | -58.41553 | 28 ft | 9 kts | 118° |
| 2026-05-07 00:18 | -34.55851 | -58.41478 | 28 ft | 11 kts | 117° |
| 2026-05-07 00:19 | -34.55887 | -58.41392 | 28 ft | 12 kts | 117° |
| 2026-05-07 00:19 | -34.55929 | -58.41297 | 28 ft | 14 kts | 122° |
| 2026-05-07 00:19 | -34.55987 | -58.41200 | 28 ft | 15 kts | 127° |
| 2026-05-07 00:19 | -34.56041 | -58.41115 | 28 ft | 11 kts | 127° |
| 2026-05-07 00:20 | -34.56089 | -58.41038 | 28 ft | 12 kts | 127° |
| 2026-05-07 00:20 | -34.56141 | -58.40949 | 28 ft | 14 kts | 121° |
| 2026-05-07 00:20 | -34.56174 | -58.40842 | 28 ft | 14 kts | 102° |
| 2026-05-07 00:20 | -34.56222 | -58.40739 | 28 ft | 15 kts | 123° |
| 2026-05-07 00:21 | -34.56282 | -58.40631 | 28 ft | 16 kts | 124° |
| 2026-05-07 00:21 | -34.56361 | -58.40528 | 28 ft | 17 kts | 138° |
| 2026-05-07 00:21 | -34.56453 | -58.40427 | 28 ft | 18 kts | 138° |
| 2026-05-07 00:21 | -34.56544 | -58.40398 | 28 ft | 14 kts | 207° |
| 2026-05-07 00:22 | -34.56550 | -58.40461 | 28 ft | 8 kts | 308° |
| 2026-05-07 00:22 | -34.56525 | -58.40501 | 28 ft | 0 kts | 303° |
| 2026-05-07 00:24 | -34.56391 | -58.40741 | 28 ft | 70 kts | 304° |
| 2026-05-07 00:24 | -34.56001 | -58.41443 | 27 ft | 128 kts | 304° |
| 2026-05-07 00:24 | -34.55419 | -58.42472 | 156 ft | 153 kts | 304° |
| 2026-05-07 00:25 | -34.54836 | -58.43573 | 395 ft | 179 kts | 301° |
| 2026-05-07 00:25 | -34.54287 | -58.44996 | 701 ft | 172 kts | 295° |
| 2026-05-07 00:25 | -34.53701 | -58.46297 | 943 ft | 191 kts | 308° |
| 2026-05-07 00:25 | -34.52735 | -58.47558 | 946 ft | 189 kts | 341° |
| 2026-05-07 00:26 | -34.51804 | -58.46949 | 2026 ft | 188 kts | 51° |
| 2026-05-07 00:26 | -34.51316 | -58.45269 | 1642 ft | 242 kts | 64° |
| 2026-05-07 00:26 | -34.50897 | -58.43094 | 1233 ft | 278 kts | 71° |
| 2026-05-07 00:26 | -34.50593 | -58.40899 | 2149 ft | 246 kts | 70° |
| 2026-05-07 00:27 | -34.50368 | -58.38951 | 3089 ft | 228 kts | 69° |
| 2026-05-07 00:27 | -34.50068 | -58.36996 | 3079 ft | 251 kts | 66° |
| 2026-05-07 00:27 | -34.49596 | -58.34822 | 2778 ft | 280 kts | 64° |
| 2026-05-07 00:27 | -34.49028 | -58.32483 | 2754 ft | 296 kts | 64° |
| 2026-05-07 00:28 | -34.48409 | -58.30122 | 3153 ft | 290 kts | 59° |
| 2026-05-07 00:28 | -34.47521 | -58.28002 | 3558 ft | 277 kts | 43° |
| 2026-05-07 00:28 | -34.46143 | -58.26440 | 3506 ft | 275 kts | 20° |
| 2026-05-07 00:28 | -34.44252 | -58.25822 | 2452 ft | 299 kts | 354° |
| 2026-05-07 00:29 | -34.42205 | -58.26407 | 2340 ft | 280 kts | 348° |
| 2026-05-07 00:29 | -34.40690 | -58.26183 | 5140 ft | 174 kts | 5° |
| 2026-05-07 00:30 | -34.37175 | -58.24647 | 6688 ft | 149 kts | 10° |
| 2026-05-07 00:30 | -34.36220 | -58.24162 | 7223 ft | 161 kts | 7° |
| 2026-05-07 00:30 | -34.34832 | -58.23697 | 4730 ft | 264 kts | 5° |